sensor_id;sensor_type;location;lat;lon;timestamp;P1;durP1;ratioP1;P2;durP2;ratioP2
38435;SDS011;24220;48.168;14.024;2023-06-10T00:02:22;11.10;;;10.10;;
38435;SDS011;24220;48.168;14.024;2023-06-10T00:04:50;9.73;;;8.82;;
38435;SDS011;24220;48.168;14.024;2023-06-10T00:07:18;9.73;;;8.73;;
38435;SDS011;24220;48.168;14.024;2023-06-10T00:09:47;10.77;;;8.68;;
38435;SDS011;24220;48.168;14.024;2023-06-10T00:12:17;9.88;;;8.88;;
38435;SDS011;24220;48.168;14.024;2023-06-10T00:14:47;10.00;;;8.95;;
38435;SDS011;24220;48.168;14.024;2023-06-10T00:17:17;10.07;;;8.80;;
38435;SDS011;24220;48.168;14.024;2023-06-10T00:19:44;9.48;;;8.50;;
38435;SDS011;24220;48.168;14.024;2023-06-10T00:22:14;9.35;;;8.40;;
38435;SDS011;24220;48.168;14.024;2023-06-10T00:24:41;9.85;;;8.85;;
38435;SDS011;24220;48.168;14.024;2023-06-10T00:27:09;9.68;;;8.52;;
38435;SDS011;24220;48.168;14.024;2023-06-10T00:29:39;9.10;;;8.20;;
38435;SDS011;24220;48.168;14.024;2023-06-10T00:32:06;9.27;;;8.38;;
38435;SDS011;24220;48.168;14.024;2023-06-10T00:34:34;9.00;;;8.05;;
38435;SDS011;24220;48.168;14.024;2023-06-10T00:37:02;9.40;;;8.50;;
38435;SDS011;24220;48.168;14.024;2023-06-10T00:39:29;10.50;;;8.90;;
38435;SDS011;24220;48.168;14.024;2023-06-10T00:41:59;9.15;;;8.25;;
38435;SDS011;24220;48.168;14.024;2023-06-10T00:44:27;9.55;;;8.65;;
38435;SDS011;24220;48.168;14.024;2023-06-10T00:46:54;9.68;;;8.77;;
38435;SDS011;24220;48.168;14.024;2023-06-10T00:49:22;9.13;;;8.25;;
38435;SDS011;24220;48.168;14.024;2023-06-10T00:51:50;9.05;;;8.15;;
38435;SDS011;24220;48.168;14.024;2023-06-10T00:54:19;8.70;;;7.90;;
38435;SDS011;24220;48.168;14.024;2023-06-10T00:56:48;11.52;;;8.60;;
38435;SDS011;24220;48.168;14.024;2023-06-10T00:59:16;9.13;;;8.23;;
38435;SDS011;24220;48.168;14.024;2023-06-10T01:01:44;9.48;;;8.48;;
38435;SDS011;24220;48.168;14.024;2023-06-10T01:04:13;9.57;;;8.45;;
38435;SDS011;24220;48.168;14.024;2023-06-10T01:06:50;9.55;;;8.48;;
38435;SDS011;24220;48.168;14.024;2023-06-10T01:09:35;9.30;;;8.48;;
38435;SDS011;24220;48.168;14.024;2023-06-10T01:12:17;9.38;;;8.25;;
38435;SDS011;24220;48.168;14.024;2023-06-10T01:14:46;9.48;;;8.60;;
38435;SDS011;24220;48.168;14.024;2023-06-10T01:17:15;9.45;;;8.55;;
38435;SDS011;24220;48.168;14.024;2023-06-10T01:19:52;9.45;;;8.55;;
38435;SDS011;24220;48.168;14.024;2023-06-10T01:22:26;9.50;;;8.57;;
38435;SDS011;24220;48.168;14.024;2023-06-10T01:25:01;9.73;;;8.82;;
38435;SDS011;24220;48.168;14.024;2023-06-10T01:27:30;8.98;;;8.07;;
38435;SDS011;24220;48.168;14.024;2023-06-10T01:30:11;9.52;;;8.60;;
38435;SDS011;24220;48.168;14.024;2023-06-10T01:32:45;9.55;;;8.65;;
38435;SDS011;24220;48.168;14.024;2023-06-10T01:35:17;9.50;;;8.60;;
38435;SDS011;24220;48.168;14.024;2023-06-10T01:37:50;10.02;;;8.80;;
38435;SDS011;24220;48.168;14.024;2023-06-10T01:40:21;10.75;;;9.65;;
38435;SDS011;24220;48.168;14.024;2023-06-10T01:42:53;10.43;;;9.40;;
38435;SDS011;24220;48.168;14.024;2023-06-10T01:45:23;9.85;;;8.95;;
38435;SDS011;24220;48.168;14.024;2023-06-10T01:47:50;10.50;;;9.50;;
38435;SDS011;24220;48.168;14.024;2023-06-10T01:50:20;10.77;;;9.75;;
38435;SDS011;24220;48.168;14.024;2023-06-10T01:52:47;10.50;;;9.50;;
38435;SDS011;24220;48.168;14.024;2023-06-10T01:55:15;10.60;;;9.57;;
38435;SDS011;24220;48.168;14.024;2023-06-10T01:57:45;10.77;;;9.77;;
38435;SDS011;24220;48.168;14.024;2023-06-10T02:00:13;10.63;;;9.63;;
38435;SDS011;24220;48.168;14.024;2023-06-10T02:02:43;10.48;;;9.40;;
38435;SDS011;24220;48.168;14.024;2023-06-10T02:05:15;9.73;;;8.82;;
38435;SDS011;24220;48.168;14.024;2023-06-10T02:07:45;10.38;;;9.38;;
38435;SDS011;24220;48.168;14.024;2023-06-10T02:10:16;10.15;;;9.15;;
38435;SDS011;24220;48.168;14.024;2023-06-10T02:12:44;10.90;;;9.90;;
38435;SDS011;24220;48.168;14.024;2023-06-10T02:15:11;10.75;;;9.65;;
38435;SDS011;24220;48.168;14.024;2023-06-10T02:17:38;10.40;;;9.40;;
38435;SDS011;24220;48.168;14.024;2023-06-10T02:20:06;11.07;;;9.95;;
38435;SDS011;24220;48.168;14.024;2023-06-10T02:22:35;10.40;;;9.30;;
38435;SDS011;24220;48.168;14.024;2023-06-10T02:25:02;10.25;;;9.25;;
38435;SDS011;24220;48.168;14.024;2023-06-10T02:27:30;10.38;;;9.38;;
38435;SDS011;24220;48.168;14.024;2023-06-10T02:29:58;11.57;;;10.13;;
38435;SDS011;24220;48.168;14.024;2023-06-10T02:32:27;10.00;;;9.10;;
38435;SDS011;24220;48.168;14.024;2023-06-10T02:34:55;10.90;;;9.68;;
38435;SDS011;24220;48.168;14.024;2023-06-10T02:37:22;10.55;;;9.32;;
38435;SDS011;24220;48.168;14.024;2023-06-10T02:39:54;10.65;;;9.65;;
38435;SDS011;24220;48.168;14.024;2023-06-10T02:42:21;11.23;;;10.07;;
38435;SDS011;24220;48.168;14.024;2023-06-10T02:44:48;10.48;;;9.48;;
38435;SDS011;24220;48.168;14.024;2023-06-10T02:47:18;10.32;;;9.30;;
38435;SDS011;24220;48.168;14.024;2023-06-10T02:49:45;11.15;;;10.05;;
38435;SDS011;24220;48.168;14.024;2023-06-10T02:52:13;11.73;;;10.63;;
38435;SDS011;24220;48.168;14.024;2023-06-10T02:54:40;12.00;;;10.88;;
38435;SDS011;24220;48.168;14.024;2023-06-10T02:57:07;11.40;;;10.25;;
38435;SDS011;24220;48.168;14.024;2023-06-10T02:59:36;12.35;;;11.18;;
38435;SDS011;24220;48.168;14.024;2023-06-10T03:02:06;11.65;;;10.55;;
38435;SDS011;24220;48.168;14.024;2023-06-10T03:04:34;12.02;;;10.82;;
38435;SDS011;24220;48.168;14.024;2023-06-10T03:07:01;12.00;;;10.75;;
38435;SDS011;24220;48.168;14.024;2023-06-10T03:09:30;11.73;;;10.63;;
38435;SDS011;24220;48.168;14.024;2023-06-10T03:11:57;12.07;;;10.98;;
38435;SDS011;24220;48.168;14.024;2023-06-10T03:14:27;11.18;;;10.18;;
38435;SDS011;24220;48.168;14.024;2023-06-10T03:16:54;12.05;;;10.85;;
38435;SDS011;24220;48.168;14.024;2023-06-10T03:19:22;12.93;;;11.73;;
38435;SDS011;24220;48.168;14.024;2023-06-10T03:22:07;12.38;;;11.18;;
38435;SDS011;24220;48.168;14.024;2023-06-10T03:24:41;13.00;;;11.70;;
38435;SDS011;24220;48.168;14.024;2023-06-10T03:27:10;11.90;;;10.80;;
38435;SDS011;24220;48.168;14.024;2023-06-10T03:29:40;12.13;;;10.93;;
38435;SDS011;24220;48.168;14.024;2023-06-10T03:32:07;12.65;;;11.35;;
38435;SDS011;24220;48.168;14.024;2023-06-10T03:34:37;12.93;;;11.73;;
38435;SDS011;24220;48.168;14.024;2023-06-10T03:37:05;13.15;;;11.85;;
38435;SDS011;24220;48.168;14.024;2023-06-10T03:39:32;12.77;;;11.50;;
38435;SDS011;24220;48.168;14.024;2023-06-10T03:42:00;13.25;;;12.07;;
38435;SDS011;24220;48.168;14.024;2023-06-10T03:44:27;13.00;;;11.70;;
38435;SDS011;24220;48.168;14.024;2023-06-10T03:46:57;12.48;;;11.38;;
38435;SDS011;24220;48.168;14.024;2023-06-10T03:49:24;13.10;;;11.90;;
38435;SDS011;24220;48.168;14.024;2023-06-10T03:51:56;13.20;;;11.80;;
38435;SDS011;24220;48.168;14.024;2023-06-10T03:54:23;13.18;;;11.88;;
38435;SDS011;24220;48.168;14.024;2023-06-10T03:56:51;12.80;;;11.55;;
38435;SDS011;24220;48.168;14.024;2023-06-10T03:59:18;11.70;;;10.60;;
38435;SDS011;24220;48.168;14.024;2023-06-10T04:01:46;12.85;;;11.63;;
38435;SDS011;24220;48.168;14.024;2023-06-10T04:04:16;12.50;;;11.20;;
38435;SDS011;24220;48.168;14.024;2023-06-10T04:06:43;13.00;;;11.80;;
38435;SDS011;24220;48.168;14.024;2023-06-10T04:09:13;13.43;;;12.23;;
38435;SDS011;24220;48.168;14.024;2023-06-10T04:11:40;13.07;;;11.88;;
38435;SDS011;24220;48.168;14.024;2023-06-10T04:14:08;13.13;;;11.82;;
38435;SDS011;24220;48.168;14.024;2023-06-10T04:16:38;13.65;;;12.32;;
38435;SDS011;24220;48.168;14.024;2023-06-10T04:19:07;13.32;;;12.02;;
38435;SDS011;24220;48.168;14.024;2023-06-10T04:21:37;14.70;;;13.15;;
38435;SDS011;24220;48.168;14.024;2023-06-10T04:24:04;14.15;;;12.75;;
38435;SDS011;24220;48.168;14.024;2023-06-10T04:26:37;14.35;;;12.90;;
38435;SDS011;24220;48.168;14.024;2023-06-10T04:29:09;13.82;;;12.48;;
38435;SDS011;24220;48.168;14.024;2023-06-10T04:31:36;15.02;;;13.52;;
38435;SDS011;24220;48.168;14.024;2023-06-10T04:34:04;14.30;;;13.00;;
38435;SDS011;24220;48.168;14.024;2023-06-10T04:36:31;14.25;;;12.80;;
38435;SDS011;24220;48.168;14.024;2023-06-10T04:39:01;14.20;;;12.80;;
38435;SDS011;24220;48.168;14.024;2023-06-10T04:41:32;14.52;;;13.13;;
38435;SDS011;24220;48.168;14.024;2023-06-10T04:43:59;14.07;;;12.45;;
38435;SDS011;24220;48.168;14.024;2023-06-10T04:46:29;14.85;;;13.43;;
38435;SDS011;24220;48.168;14.024;2023-06-10T04:48:58;14.52;;;13.02;;
38435;SDS011;24220;48.168;14.024;2023-06-10T04:51:25;14.23;;;12.82;;
38435;SDS011;24220;48.168;14.024;2023-06-10T04:53:53;13.95;;;12.55;;
38435;SDS011;24220;48.168;14.024;2023-06-10T04:56:20;14.13;;;12.82;;
38435;SDS011;24220;48.168;14.024;2023-06-10T04:58:49;14.55;;;13.05;;
38435;SDS011;24220;48.168;14.024;2023-06-10T05:01:16;14.77;;;12.63;;
38435;SDS011;24220;48.168;14.024;2023-06-10T05:03:43;14.63;;;13.13;;
38435;SDS011;24220;48.168;14.024;2023-06-10T05:06:11;17.85;;;13.60;;
38435;SDS011;24220;48.168;14.024;2023-06-10T05:08:38;14.55;;;12.98;;
38435;SDS011;24220;48.168;14.024;2023-06-10T05:11:10;14.63;;;13.18;;
38435;SDS011;24220;48.168;14.024;2023-06-10T05:13:38;14.68;;;12.93;;
38435;SDS011;24220;48.168;14.024;2023-06-10T05:16:07;15.02;;;13.52;;
38435;SDS011;24220;48.168;14.024;2023-06-10T05:18:34;15.02;;;13.63;;
38435;SDS011;24220;48.168;14.024;2023-06-10T05:21:02;16.15;;;14.55;;
38435;SDS011;24220;48.168;14.024;2023-06-10T05:23:29;15.63;;;14.05;;
38435;SDS011;24220;48.168;14.024;2023-06-10T05:25:57;16.17;;;14.50;;
38435;SDS011;24220;48.168;14.024;2023-06-10T05:28:27;14.73;;;13.32;;
38435;SDS011;24220;48.168;14.024;2023-06-10T05:30:54;14.20;;;12.90;;
38435;SDS011;24220;48.168;14.024;2023-06-10T05:33:22;15.18;;;13.68;;
38435;SDS011;24220;48.168;14.024;2023-06-10T05:35:49;14.90;;;13.40;;
38435;SDS011;24220;48.168;14.024;2023-06-10T05:38:16;14.60;;;13.20;;
38435;SDS011;24220;48.168;14.024;2023-06-10T05:40:44;15.18;;;13.65;;
38435;SDS011;24220;48.168;14.024;2023-06-10T05:43:13;14.88;;;13.38;;
38435;SDS011;24220;48.168;14.024;2023-06-10T05:45:43;17.40;;;13.85;;
38435;SDS011;24220;48.168;14.024;2023-06-10T05:48:10;15.45;;;13.95;;
38435;SDS011;24220;48.168;14.024;2023-06-10T05:50:41;15.55;;;13.35;;
38435;SDS011;24220;48.168;14.024;2023-06-10T05:53:11;13.93;;;12.60;;
38435;SDS011;24220;48.168;14.024;2023-06-10T05:55:42;14.30;;;12.90;;
38435;SDS011;24220;48.168;14.024;2023-06-10T05:58:13;14.30;;;12.90;;
38435;SDS011;24220;48.168;14.024;2023-06-10T06:00:41;14.00;;;12.60;;
38435;SDS011;24220;48.168;14.024;2023-06-10T06:03:08;14.60;;;13.18;;
38435;SDS011;24220;48.168;14.024;2023-06-10T06:05:37;14.15;;;12.40;;
38435;SDS011;24220;48.168;14.024;2023-06-10T06:08:05;15.48;;;12.98;;
38435;SDS011;24220;48.168;14.024;2023-06-10T06:10:35;13.82;;;12.50;;
38435;SDS011;24220;48.168;14.024;2023-06-10T06:13:03;15.02;;;13.52;;
38435;SDS011;24220;48.168;14.024;2023-06-10T06:15:30;14.48;;;12.98;;
38435;SDS011;24220;48.168;14.024;2023-06-10T06:18:00;14.70;;;13.32;;
38435;SDS011;24220;48.168;14.024;2023-06-10T06:20:29;14.35;;;12.95;;
38435;SDS011;24220;48.168;14.024;2023-06-10T06:22:57;16.30;;;13.63;;
38435;SDS011;24220;48.168;14.024;2023-06-10T06:25:26;15.13;;;13.63;;
38435;SDS011;24220;48.168;14.024;2023-06-10T06:27:56;15.00;;;13.48;;
38435;SDS011;24220;48.168;14.024;2023-06-10T06:30:23;15.57;;;13.93;;
38435;SDS011;24220;48.168;14.024;2023-06-10T06:32:50;15.60;;;13.45;;
38435;SDS011;24220;48.168;14.024;2023-06-10T06:35:18;15.13;;;13.63;;
38435;SDS011;24220;48.168;14.024;2023-06-10T06:37:46;14.32;;;12.93;;
38435;SDS011;24220;48.168;14.024;2023-06-10T06:40:14;13.25;;;11.93;;
38435;SDS011;24220;48.168;14.024;2023-06-10T06:42:42;14.35;;;12.95;;
38435;SDS011;24220;48.168;14.024;2023-06-10T06:45:10;13.57;;;12.25;;
38435;SDS011;24220;48.168;14.024;2023-06-10T06:47:40;14.18;;;11.90;;
38435;SDS011;24220;48.168;14.024;2023-06-10T06:50:07;13.15;;;11.85;;
38435;SDS011;24220;48.168;14.024;2023-06-10T06:52:35;12.68;;;11.38;;
38435;SDS011;24220;48.168;14.024;2023-06-10T06:55:03;11.85;;;10.63;;
38435;SDS011;24220;48.168;14.024;2023-06-10T06:57:31;14.05;;;12.38;;
38435;SDS011;24220;48.168;14.024;2023-06-10T06:59:59;12.77;;;11.52;;
38435;SDS011;24220;48.168;14.024;2023-06-10T07:02:26;12.27;;;11.07;;
38435;SDS011;24220;48.168;14.024;2023-06-10T07:04:54;13.48;;;12.10;;
38435;SDS011;24220;48.168;14.024;2023-06-10T07:07:22;13.85;;;12.45;;
38435;SDS011;24220;48.168;14.024;2023-06-10T07:09:50;16.38;;;13.48;;
38435;SDS011;24220;48.168;14.024;2023-06-10T07:12:17;14.40;;;12.90;;
38435;SDS011;24220;48.168;14.024;2023-06-10T07:14:45;15.13;;;13.25;;
38435;SDS011;24220;48.168;14.024;2023-06-10T07:17:15;15.43;;;13.93;;
38435;SDS011;24220;48.168;14.024;2023-06-10T07:19:42;14.77;;;13.18;;
38435;SDS011;24220;48.168;14.024;2023-06-10T07:22:10;17.55;;;14.40;;
38435;SDS011;24220;48.168;14.024;2023-06-10T07:24:38;15.02;;;13.48;;
38435;SDS011;24220;48.168;14.024;2023-06-10T07:27:05;13.85;;;12.45;;
38435;SDS011;24220;48.168;14.024;2023-06-10T07:29:36;13.18;;;11.65;;
38435;SDS011;24220;48.168;14.024;2023-06-10T07:32:04;13.80;;;11.95;;
38435;SDS011;24220;48.168;14.024;2023-06-10T07:34:36;15.85;;;11.93;;
38435;SDS011;24220;48.168;14.024;2023-06-10T07:37:06;13.70;;;12.30;;
38435;SDS011;24220;48.168;14.024;2023-06-10T07:39:34;11.65;;;10.20;;
38435;SDS011;24220;48.168;14.024;2023-06-10T07:42:02;11.75;;;10.63;;
38435;SDS011;24220;48.168;14.024;2023-06-10T07:44:30;10.98;;;9.93;;
38435;SDS011;24220;48.168;14.024;2023-06-10T07:46:57;13.70;;;11.02;;
38435;SDS011;24220;48.168;14.024;2023-06-10T07:49:29;11.25;;;10.02;;
38435;SDS011;24220;48.168;14.024;2023-06-10T07:51:58;11.02;;;9.82;;
38435;SDS011;24220;48.168;14.024;2023-06-10T07:54:26;10.88;;;9.77;;
38435;SDS011;24220;48.168;14.024;2023-06-10T07:56:56;10.48;;;9.43;;
38435;SDS011;24220;48.168;14.024;2023-06-10T07:59:23;11.63;;;10.43;;
38435;SDS011;24220;48.168;14.024;2023-06-10T08:01:52;10.90;;;9.80;;
38435;SDS011;24220;48.168;14.024;2023-06-10T08:04:22;11.23;;;10.05;;
38435;SDS011;24220;48.168;14.024;2023-06-10T08:06:50;10.75;;;9.75;;
38435;SDS011;24220;48.168;14.024;2023-06-10T08:09:20;10.82;;;9.73;;
38435;SDS011;24220;48.168;14.024;2023-06-10T08:11:52;11.27;;;9.98;;
38435;SDS011;24220;48.168;14.024;2023-06-10T08:14:19;10.18;;;9.00;;
38435;SDS011;24220;48.168;14.024;2023-06-10T08:16:49;10.60;;;9.50;;
38435;SDS011;24220;48.168;14.024;2023-06-10T08:19:20;9.60;;;8.70;;
38435;SDS011;24220;48.168;14.024;2023-06-10T08:21:47;8.95;;;8.07;;
38435;SDS011;24220;48.168;14.024;2023-06-10T08:24:14;8.60;;;7.80;;
38435;SDS011;24220;48.168;14.024;2023-06-10T08:26:45;9.30;;;8.40;;
38435;SDS011;24220;48.168;14.024;2023-06-10T08:29:13;8.20;;;7.50;;
38435;SDS011;24220;48.168;14.024;2023-06-10T08:31:43;9.20;;;7.95;;
38435;SDS011;24220;48.168;14.024;2023-06-10T08:34:11;9.05;;;8.15;;
38435;SDS011;24220;48.168;14.024;2023-06-10T08:36:38;9.98;;;9.00;;
38435;SDS011;24220;48.168;14.024;2023-06-10T08:39:06;9.20;;;7.90;;
38435;SDS011;24220;48.168;14.024;2023-06-10T08:41:35;8.70;;;7.32;;
38435;SDS011;24220;48.168;14.024;2023-06-10T08:46:57;7.50;;;6.90;;
38435;SDS011;24220;48.168;14.024;2023-06-10T08:49:27;8.10;;;7.40;;
38435;SDS011;24220;48.168;14.024;2023-06-10T08:51:58;8.68;;;7.88;;
38435;SDS011;24220;48.168;14.024;2023-06-10T08:54:30;8.07;;;7.28;;
38435;SDS011;24220;48.168;14.024;2023-06-10T08:57:01;8.38;;;7.57;;
38435;SDS011;24220;48.168;14.024;2023-06-10T08:59:33;7.50;;;6.85;;
38435;SDS011;24220;48.168;14.024;2023-06-10T09:02:01;8.52;;;7.30;;
38435;SDS011;24220;48.168;14.024;2023-06-10T09:04:31;8.40;;;7.60;;
38435;SDS011;24220;48.168;14.024;2023-06-10T09:07:04;8.30;;;7.40;;
38435;SDS011;24220;48.168;14.024;2023-06-10T09:09:35;8.43;;;7.63;;
38435;SDS011;24220;48.168;14.024;2023-06-10T09:12:03;8.40;;;7.60;;
38435;SDS011;24220;48.168;14.024;2023-06-10T09:14:31;8.10;;;7.40;;
38435;SDS011;24220;48.168;14.024;2023-06-10T09:16:59;8.05;;;7.15;;
38435;SDS011;24220;48.168;14.024;2023-06-10T09:19:26;7.70;;;7.00;;
38435;SDS011;24220;48.168;14.024;2023-06-10T09:21:59;7.80;;;7.10;;
38435;SDS011;24220;48.168;14.024;2023-06-10T09:24:30;7.25;;;6.63;;
38435;SDS011;24220;48.168;14.024;2023-06-10T09:27:07;6.70;;;6.10;;
38435;SDS011;24220;48.168;14.024;2023-06-10T09:32:18;7.38;;;6.68;;
38435;SDS011;24220;48.168;14.024;2023-06-10T09:34:48;6.90;;;6.30;;
38435;SDS011;24220;48.168;14.024;2023-06-10T09:37:20;6.50;;;5.93;;
38435;SDS011;24220;48.168;14.024;2023-06-10T09:40:04;7.28;;;6.68;;
38435;SDS011;24220;48.168;14.024;2023-06-10T09:42:34;6.15;;;5.65;;
38435;SDS011;24220;48.168;14.024;2023-06-10T09:45:03;7.00;;;6.40;;
38435;SDS011;24220;48.168;14.024;2023-06-10T09:47:33;6.63;;;5.95;;
38435;SDS011;24220;48.168;14.024;2023-06-10T09:50:05;6.13;;;5.63;;
38435;SDS011;24220;48.168;14.024;2023-06-10T09:52:36;6.80;;;6.20;;
38435;SDS011;24220;48.168;14.024;2023-06-10T09:55:08;5.65;;;5.15;;
38435;SDS011;24220;48.168;14.024;2023-06-10T09:57:39;6.90;;;6.28;;
38435;SDS011;24220;48.168;14.024;2023-06-10T10:00:08;6.60;;;6.00;;
38435;SDS011;24220;48.168;14.024;2023-06-10T10:02:44;6.07;;;5.57;;
38435;SDS011;24220;48.168;14.024;2023-06-10T10:05:16;6.28;;;5.72;;
38435;SDS011;24220;48.168;14.024;2023-06-10T10:07:45;6.70;;;6.03;;
38435;SDS011;24220;48.168;14.024;2023-06-10T10:10:14;5.78;;;5.28;;
38435;SDS011;24220;48.168;14.024;2023-06-10T10:12:42;5.40;;;4.78;;
38435;SDS011;24220;48.168;14.024;2023-06-10T10:20:22;5.55;;;4.97;;
38435;SDS011;24220;48.168;14.024;2023-06-10T10:22:55;5.65;;;5.15;;
38435;SDS011;24220;48.168;14.024;2023-06-10T10:25:27;5.15;;;4.75;;
38435;SDS011;24220;48.168;14.024;2023-06-10T10:28:02;4.82;;;4.40;;
38435;SDS011;24220;48.168;14.024;2023-06-10T10:30:40;4.85;;;4.45;;
38435;SDS011;24220;48.168;14.024;2023-06-10T10:33:16;5.20;;;4.80;;
38435;SDS011;24220;48.168;14.024;2023-06-10T10:35:47;4.93;;;4.53;;
38435;SDS011;24220;48.168;14.024;2023-06-10T10:38:15;4.70;;;4.30;;
38435;SDS011;24220;48.168;14.024;2023-06-10T10:40:45;5.10;;;4.43;;
38435;SDS011;24220;48.168;14.024;2023-06-10T10:43:15;4.60;;;4.20;;
38435;SDS011;24220;48.168;14.024;2023-06-10T10:45:57;6.30;;;4.78;;
38435;SDS011;24220;48.168;14.024;2023-06-10T10:48:35;4.88;;;4.47;;
38435;SDS011;24220;48.168;14.024;2023-06-10T10:51:04;4.85;;;4.35;;
38435;SDS011;24220;48.168;14.024;2023-06-10T10:53:32;4.47;;;4.18;;
38435;SDS011;24220;48.168;14.024;2023-06-10T10:56:06;5.03;;;4.63;;
38435;SDS011;24220;48.168;14.024;2023-06-10T10:58:38;4.47;;;4.10;;
38435;SDS011;24220;48.168;14.024;2023-06-10T11:01:12;4.70;;;4.30;;
38435;SDS011;24220;48.168;14.024;2023-06-10T11:03:42;4.90;;;4.40;;
38435;SDS011;24220;48.168;14.024;2023-06-10T11:06:15;4.00;;;3.70;;
38435;SDS011;24220;48.168;14.024;2023-06-10T11:08:45;4.50;;;4.10;;
38435;SDS011;24220;48.168;14.024;2023-06-10T11:11:20;4.55;;;3.83;;
38435;SDS011;24220;48.168;14.024;2023-06-10T11:16:37;5.38;;;4.88;;
38435;SDS011;24220;48.168;14.024;2023-06-10T11:19:09;4.80;;;4.40;;
38435;SDS011;24220;48.168;14.024;2023-06-10T11:24:46;5.80;;;5.30;;
38435;SDS011;24220;48.168;14.024;2023-06-10T11:27:21;6.30;;;5.50;;
38435;SDS011;24220;48.168;14.024;2023-06-10T11:30:17;5.63;;;5.13;;
38435;SDS011;24220;48.168;14.024;2023-06-10T11:32:49;5.10;;;4.70;;
38435;SDS011;24220;48.168;14.024;2023-06-10T11:35:26;4.93;;;4.53;;
38435;SDS011;24220;48.168;14.024;2023-06-10T11:37:54;5.00;;;4.60;;
38435;SDS011;24220;48.168;14.024;2023-06-10T11:40:21;6.20;;;5.40;;
38435;SDS011;24220;48.168;14.024;2023-06-10T11:42:49;6.90;;;6.20;;
38435;SDS011;24220;48.168;14.024;2023-06-10T11:45:17;8.27;;;7.47;;
38435;SDS011;24220;48.168;14.024;2023-06-10T11:48:00;9.57;;;7.82;;
38435;SDS011;24220;48.168;14.024;2023-06-10T11:50:31;7.25;;;6.55;;
38435;SDS011;24220;48.168;14.024;2023-06-10T11:52:59;8.50;;;7.63;;
38435;SDS011;24220;48.168;14.024;2023-06-10T11:55:45;10.15;;;9.15;;
38435;SDS011;24220;48.168;14.024;2023-06-10T11:58:15;6.78;;;6.18;;
38435;SDS011;24220;48.168;14.024;2023-06-10T12:00:52;5.45;;;4.70;;
38435;SDS011;24220;48.168;14.024;2023-06-10T12:03:27;5.15;;;4.55;;
38435;SDS011;24220;48.168;14.024;2023-06-10T12:06:05;5.70;;;4.95;;
38435;SDS011;24220;48.168;14.024;2023-06-10T12:08:41;4.65;;;4.25;;
38435;SDS011;24220;48.168;14.024;2023-06-10T12:11:09;7.35;;;5.78;;
38435;SDS011;24220;48.168;14.024;2023-06-10T12:13:37;6.45;;;5.53;;
38435;SDS011;24220;48.168;14.024;2023-06-10T12:16:18;6.65;;;5.68;;
38435;SDS011;24220;48.168;14.024;2023-06-10T12:18:46;6.55;;;4.00;;
38435;SDS011;24220;48.168;14.024;2023-06-10T12:21:20;2.80;;;2.60;;
38435;SDS011;24220;48.168;14.024;2023-06-10T12:26:39;4.50;;;3.85;;
38435;SDS011;24220;48.168;14.024;2023-06-10T12:29:30;4.15;;;3.72;;
38435;SDS011;24220;48.168;14.024;2023-06-10T12:32:01;5.00;;;4.30;;
38435;SDS011;24220;48.168;14.024;2023-06-10T12:34:32;4.43;;;4.03;;
38435;SDS011;24220;48.168;14.024;2023-06-10T12:37:02;4.68;;;3.55;;
38435;SDS011;24220;48.168;14.024;2023-06-10T12:39:32;2.80;;;2.58;;
38435;SDS011;24220;48.168;14.024;2023-06-10T12:42:00;2.92;;;2.72;;
38435;SDS011;24220;48.168;14.024;2023-06-10T12:44:31;2.38;;;2.00;;
38435;SDS011;24220;48.168;14.024;2023-06-10T12:47:00;2.05;;;1.95;;
38435;SDS011;24220;48.168;14.024;2023-06-10T12:49:34;3.63;;;2.38;;
38435;SDS011;24220;48.168;14.024;2023-06-10T12:52:02;2.35;;;2.15;;
38435;SDS011;24220;48.168;14.024;2023-06-10T12:54:30;3.75;;;3.00;;
38435;SDS011;24220;48.168;14.024;2023-06-10T12:56:58;2.25;;;2.05;;
38435;SDS011;24220;48.168;14.024;2023-06-10T12:59:26;2.53;;;2.15;;
38435;SDS011;24220;48.168;14.024;2023-06-10T13:01:54;2.25;;;2.05;;
38435;SDS011;24220;48.168;14.024;2023-06-10T13:04:24;3.05;;;2.10;;
38435;SDS011;24220;48.168;14.024;2023-06-10T13:06:52;2.15;;;1.95;;
38435;SDS011;24220;48.168;14.024;2023-06-10T13:09:21;2.47;;;2.28;;
38435;SDS011;24220;48.168;14.024;2023-06-10T13:11:48;2.88;;;2.67;;
38435;SDS011;24220;48.168;14.024;2023-06-10T13:14:16;3.10;;;2.20;;
38435;SDS011;24220;48.168;14.024;2023-06-10T13:16:46;2.97;;;2.55;;
38435;SDS011;24220;48.168;14.024;2023-06-10T13:19:14;3.00;;;2.80;;
38435;SDS011;24220;48.168;14.024;2023-06-10T13:21:44;3.03;;;2.80;;
38435;SDS011;24220;48.168;14.024;2023-06-10T13:24:14;3.60;;;3.17;;
38435;SDS011;24220;48.168;14.024;2023-06-10T13:26:42;3.92;;;3.58;;
38435;SDS011;24220;48.168;14.024;2023-06-10T13:29:12;5.05;;;3.53;;
38435;SDS011;24220;48.168;14.024;2023-06-10T13:31:42;4.70;;;4.30;;
38435;SDS011;24220;48.168;14.024;2023-06-10T13:34:10;4.45;;;4.07;;
38435;SDS011;24220;48.168;14.024;2023-06-10T13:36:38;5.68;;;4.45;;
38435;SDS011;24220;48.168;14.024;2023-06-10T13:39:05;4.50;;;4.15;;
38435;SDS011;24220;48.168;14.024;2023-06-10T13:41:33;5.95;;;5.38;;
38435;SDS011;24220;48.168;14.024;2023-06-10T13:44:03;6.03;;;5.30;;
38435;SDS011;24220;48.168;14.024;2023-06-10T13:46:31;6.15;;;5.55;;
38435;SDS011;24220;48.168;14.024;2023-06-10T13:49:01;6.57;;;5.97;;
38435;SDS011;24220;48.168;14.024;2023-06-10T13:51:28;6.80;;;6.13;;
38435;SDS011;24220;48.168;14.024;2023-06-10T13:53:56;7.32;;;6.00;;
38435;SDS011;24220;48.168;14.024;2023-06-10T13:56:25;8.00;;;7.30;;
38435;SDS011;24220;48.168;14.024;2023-06-10T13:58:53;8.65;;;7.75;;
38435;SDS011;24220;48.168;14.024;2023-06-10T14:01:20;8.80;;;7.90;;
38435;SDS011;24220;48.168;14.024;2023-06-10T14:03:47;8.88;;;8.07;;
38435;SDS011;24220;48.168;14.024;2023-06-10T14:06:18;7.90;;;7.25;;
38435;SDS011;24220;48.168;14.024;2023-06-10T14:08:45;8.48;;;7.68;;
38435;SDS011;24220;48.168;14.024;2023-06-10T14:11:15;8.32;;;7.53;;
38435;SDS011;24220;48.168;14.024;2023-06-10T14:13:47;9.13;;;8.18;;
38435;SDS011;24220;48.168;14.024;2023-06-10T14:16:23;9.32;;;8.43;;
38435;SDS011;24220;48.168;14.024;2023-06-10T14:18:53;10.18;;;8.40;;
38435;SDS011;24220;48.168;14.024;2023-06-10T14:21:23;9.77;;;8.88;;
38435;SDS011;24220;48.168;14.024;2023-06-10T14:23:53;10.40;;;9.50;;
38435;SDS011;24220;48.168;14.024;2023-06-10T14:26:20;10.75;;;9.65;;
38435;SDS011;24220;48.168;14.024;2023-06-10T14:28:49;9.48;;;8.23;;
38435;SDS011;24220;48.168;14.024;2023-06-10T14:31:19;8.95;;;8.13;;
38435;SDS011;24220;48.168;14.024;2023-06-10T14:33:53;9.43;;;8.50;;
38435;SDS011;24220;48.168;14.024;2023-06-10T14:36:21;9.63;;;8.73;;
38435;SDS011;24220;48.168;14.024;2023-06-10T14:38:51;8.88;;;7.97;;
38435;SDS011;24220;48.168;14.024;2023-06-10T14:41:18;7.75;;;7.05;;
38435;SDS011;24220;48.168;14.024;2023-06-10T14:43:45;8.10;;;7.30;;
38435;SDS011;24220;48.168;14.024;2023-06-10T14:46:13;8.63;;;7.60;;
38435;SDS011;24220;48.168;14.024;2023-06-10T14:48:43;9.75;;;7.47;;
38435;SDS011;24220;48.168;14.024;2023-06-10T14:51:10;9.27;;;8.05;;
38435;SDS011;24220;48.168;14.024;2023-06-10T14:53:37;8.18;;;7.38;;
38435;SDS011;24220;48.168;14.024;2023-06-10T14:56:08;8.07;;;7.37;;
38435;SDS011;24220;48.168;14.024;2023-06-10T14:58:35;7.53;;;6.82;;